Time;durP1;ratioP1;P1;durP2;ratioP2;P2;SDS_P1;SDS_P2;PMS_P1;PMS_P2;Temp;Humidity;BMP_temperature;BMP_pressure;BME280_temperature;BME280_humidity;BME280_pressure;Samples;Min_cycle;Max_cycle;Signal;HPM_P1;HPM_P2
2021/05/02 00:00:26;;;;;;;32.03;24.48;;;9.20;99.90;;;;;;5039615;28;20242;-53
2021/05/02 00:02:52;;;;;;;31.65;24.52;;;8.90;99.90;;;;;;5044730;28;20245;-52
2021/05/02 00:05:21;;;;;;;33.05;25.73;;;8.70;99.90;;;;;;5047414;28;20181;-52
2021/05/02 00:07:47;;;;;;;31.45;24.55;;;8.90;99.90;;;;;;5045790;28;20664;-53
2021/05/02 00:10:15;;;;;;;28.80;23.92;;;8.70;99.90;;;;;;5046958;28;20326;-53
2021/05/02 00:12:40;;;;;;;31.38;24.60;;;9.00;99.90;;;;;;5041448;28;20205;-53
2021/05/02 00:15:09;;;;;;;28.97;23.10;;;8.60;99.90;;;;;;5046197;28;20259;-53
2021/05/02 00:17:40;;;;;;;32.22;24.27;;;8.40;99.90;;;;;;5044150;28;20182;-53
2021/05/02 00:20:08;;;;;;;28.45;22.92;;;8.80;99.90;;;;;;5046358;28;20686;-53
2021/05/02 00:22:34;;;;;;;28.65;22.83;;;8.90;99.90;;;;;;5044790;28;20466;-53
2021/05/02 00:25:03;;;;;;;29.27;23.80;;;8.90;99.90;;;;;;5048435;28;20682;-53
2021/05/02 00:27:28;;;;;;;29.95;23.98;;;8.90;99.90;;;;;;5046262;28;20182;-52
2021/05/02 00:29:55;;;;;;;30.00;23.27;;;8.80;99.90;;;;;;5050056;28;20727;-53
2021/05/02 00:32:21;;;;;;;24.63;21.85;;;9.00;99.90;;;;;;5048275;28;20572;-52
2021/05/02 00:34:49;;;;;;;25.58;21.75;;;8.70;99.90;;;;;;5049947;28;20182;-53
2021/05/02 00:37:16;;;;;;;25.08;21.95;;;8.80;99.90;;;;;;5049734;28;20196;-52
2021/05/02 00:39:42;;;;;;;27.15;21.75;;;8.90;99.90;;;;;;5047163;28;20182;-53
2021/05/02 00:42:17;;;;;;;25.70;22.07;;;8.60;99.90;;;;;;5045227;28;20548;-53
2021/05/02 00:44:48;;;;;;;25.70;22.02;;;8.80;99.90;;;;;;5049365;28;20435;-53
2021/05/02 00:47:18;;;;;;;24.00;21.50;;;8.70;99.90;;;;;;5049335;28;20178;-53
2021/05/02 00:49:46;;;;;;;24.23;20.70;;;8.60;99.90;;;;;;5041079;28;20178;-53
2021/05/02 00:52:37;;;;;;;24.58;21.92;;;8.60;99.90;;;;;;5039028;28;20206;-53
2021/05/02 00:55:11;;;;;;;24.27;20.90;;;8.60;99.90;;;;;;5044859;28;20190;-53
2021/05/02 00:57:46;;;;;;;26.05;22.10;;;8.80;99.90;;;;;;5050581;28;20194;-53
2021/05/02 01:00:13;;;;;;;27.75;23.15;;;8.50;99.90;;;;;;5058603;28;20188;-53
2021/05/02 01:02:41;;;;;;;27.55;23.02;;;8.40;99.90;;;;;;5046175;28;20194;-53
2021/05/02 01:05:10;;;;;;;27.80;22.20;;;8.40;99.90;;;;;;5045774;28;20186;-53
2021/05/02 01:07:40;;;;;;;28.38;23.20;;;8.50;99.90;;;;;;5045407;28;20657;-53
2021/05/02 01:10:14;;;;;;;25.55;22.45;;;8.50;99.90;;;;;;5045998;28;20198;-53
2021/05/02 01:12:46;;;;;;;27.33;23.85;;;8.40;99.90;;;;;;5047380;28;20606;-53
2021/05/02 01:15:15;;;;;;;26.83;23.30;;;8.00;99.90;;;;;;5049084;28;20211;-53
2021/05/02 01:17:45;;;;;;;27.23;22.35;;;8.60;99.90;;;;;;5049070;28;20186;-52
2021/05/02 01:20:13;;;;;;;27.50;22.70;;;8.60;99.90;;;;;;5046887;28;20222;-53
2021/05/02 01:22:42;;;;;;;25.38;22.10;;;8.40;99.90;;;;;;5048633;28;20219;-52
2021/05/02 01:25:09;;;;;;;29.05;24.08;;;8.50;99.90;;;;;;5048659;28;20192;-53
2021/05/02 01:27:36;;;;;;;25.38;22.42;;;8.60;99.90;;;;;;5049809;28;20185;-53
2021/05/02 01:30:06;;;;;;;27.63;24.30;;;8.50;99.90;;;;;;5062000;28;20208;-53
2021/05/02 01:32:32;;;;;;;28.33;22.38;;;8.60;99.90;;;;;;5045566;28;20218;-53
2021/05/02 01:34:59;;;;;;;25.07;21.33;;;8.70;99.90;;;;;;5049096;28;20649;-52
2021/05/02 01:37:24;;;;;;;25.60;22.02;;;8.60;99.90;;;;;;5048742;28;20272;-53
2021/05/02 01:39:51;;;;;;;26.20;22.47;;;8.30;99.90;;;;;;5049954;28;20641;-52
2021/05/02 01:42:16;;;;;;;27.85;23.67;;;8.50;99.90;;;;;;5048262;28;20271;-53
2021/05/02 01:44:42;;;;;;;27.50;23.80;;;8.30;99.90;;;;;;5041778;28;20177;-53
2021/05/02 01:47:16;;;;;;;27.57;22.47;;;8.40;99.90;;;;;;5040838;28;20439;-53
2021/05/02 01:49:50;;;;;;;25.60;22.02;;;8.40;99.90;;;;;;5048437;28;20728;-53
2021/05/02 01:52:17;;;;;;;24.73;21.90;;;8.40;99.90;;;;;;5047340;28;20208;-53
2021/05/02 01:54:44;;;;;;;26.00;21.17;;;8.30;99.90;;;;;;5047204;28;20219;-53
2021/05/02 01:57:10;;;;;;;27.95;22.08;;;8.10;99.90;;;;;;5049051;28;20197;-54
2021/05/02 01:59:37;;;;;;;24.00;21.15;;;8.20;99.90;;;;;;5048107;28;20205;-53
2021/05/02 02:02:06;;;;;;;25.70;21.75;;;8.40;99.90;;;;;;5048389;28;20241;-53
2021/05/02 02:04:35;;;;;;;28.20;22.08;;;8.50;99.90;;;;;;5048079;28;20181;-53
2021/05/02 02:07:01;;;;;;;26.38;23.33;;;8.50;99.90;;;;;;5047687;28;20271;-53
2021/05/02 02:09:29;;;;;;;30.87;23.83;;;8.50;99.90;;;;;;5044742;28;20226;-53
2021/05/02 02:11:55;;;;;;;26.13;22.77;;;8.60;99.90;;;;;;5040632;28;20535;-52
2021/05/02 02:14:23;;;;;;;28.30;23.75;;;8.30;99.90;;;;;;5037319;28;20640;-53
2021/05/02 02:16:50;;;;;;;28.45;24.27;;;8.10;99.90;;;;;;5046227;28;20285;-52
2021/05/02 02:19:15;;;;;;;26.67;23.60;;;8.20;99.90;;;;;;5048292;28;20186;-53
2021/05/02 02:21:42;;;;;;;26.10;22.80;;;8.40;99.90;;;;;;5047617;28;20205;-52
2021/05/02 02:24:12;;;;;;;29.20;23.15;;;8.30;99.90;;;;;;5047909;28;20689;-52
2021/05/02 02:26:55;;;;;;;28.73;23.25;;;8.40;99.90;;;;;;5044215;28;20199;-53
2021/05/02 02:29:22;;;;;;;27.67;23.75;;;8.40;99.90;;;;;;5036428;28;20248;-53
2021/05/02 02:31:50;;;;;;;32.30;23.90;;;8.30;99.90;;;;;;5043327;28;20613;-52
2021/05/02 02:34:18;;;;;;;25.63;22.45;;;8.40;99.90;;;;;;5047940;28;20181;-52
2021/05/02 02:36:44;;;;;;;28.33;24.17;;;8.40;99.90;;;;;;5047309;28;20224;-53
2021/05/02 02:39:10;;;;;;;29.02;24.42;;;8.30;99.90;;;;;;5047385;28;20217;-53
2021/05/02 02:41:38;;;;;;;27.95;24.00;;;7.70;99.90;;;;;;5044973;28;20202;-53
2021/05/02 02:44:07;;;;;;;27.80;24.15;;;8.30;99.90;;;;;;5043983;28;20261;-53
2021/05/02 02:46:37;;;;;;;30.38;23.40;;;8.20;99.90;;;;;;5046527;28;20182;-53
2021/05/02 02:49:08;;;;;;;29.02;25.30;;;8.00;99.90;;;;;;5045384;28;20244;-53
2021/05/02 02:51:34;;;;;;;30.25;25.80;;;7.90;99.90;;;;;;5047769;28;20288;-53
2021/05/02 02:54:02;;;;;;;30.30;25.65;;;8.20;99.90;;;;;;5046756;28;20588;-53
2021/05/02 02:56:30;;;;;;;26.52;23.15;;;8.20;99.90;;;;;;5047606;28;20194;-54
2021/05/02 02:59:00;;;;;;;30.55;25.75;;;8.20;99.90;;;;;;5047080;28;20197;-53
2021/05/02 03:01:26;;;;;;;29.33;24.70;;;8.20;99.90;;;;;;5045374;28;20207;-52
2021/05/02 03:03:55;;;;;;;30.77;24.73;;;8.20;99.90;;;;;;5047220;28;20206;-53
2021/05/02 03:06:24;;;;;;;29.70;25.05;;;8.40;99.90;;;;;;5052921;28;20640;-53
2021/05/02 03:08:53;;;;;;;35.38;27.35;;;8.20;99.90;;;;;;5046963;28;20601;-52
2021/05/02 03:11:19;;;;;;;33.08;24.83;;;8.40;99.90;;;;;;5047113;28;20223;-53
2021/05/02 03:13:46;;;;;;;32.83;26.45;;;8.50;99.90;;;;;;5043723;28;20216;-53
2021/05/02 03:16:12;;;;;;;31.52;26.88;;;8.60;99.90;;;;;;5046828;28;20185;-53
2021/05/02 03:19:35;;;;;;;28.60;25.33;;;8.40;99.90;;;;;;5047032;28;20174;-54
2021/05/02 03:22:08;;;;;;;30.27;25.15;;;8.20;99.90;;;;;;5025630;28;20803;-53
2021/05/02 03:24:37;;;;;;;29.80;25.60;;;8.40;99.90;;;;;;5053900;28;20235;-53
2021/05/02 03:27:07;;;;;;;29.95;26.25;;;8.00;99.90;;;;;;5059072;28;20224;-53
2021/05/02 03:29:39;;;;;;;30.48;26.58;;;7.70;99.90;;;;;;5046959;28;20539;-53
2021/05/02 03:32:07;;;;;;;31.33;27.10;;;8.00;99.90;;;;;;5038823;28;20227;-53
2021/05/02 03:34:37;;;;;;;33.28;27.83;;;8.10;99.90;;;;;;5043698;28;20500;-53
2021/05/02 03:37:04;;;;;;;31.08;27.00;;;8.00;99.90;;;;;;5043125;28;20192;-52
2021/05/02 03:39:30;;;;;;;32.33;27.13;;;7.90;99.90;;;;;;5046476;28;20647;-53
2021/05/02 03:41:55;;;;;;;31.75;26.35;;;7.90;99.90;;;;;;5043779;28;20216;-53
2021/05/02 03:44:21;;;;;;;33.00;28.20;;;7.80;99.90;;;;;;5046120;28;20235;-53
2021/05/02 03:46:47;;;;;;;32.90;27.90;;;7.80;99.90;;;;;;5046726;28;20182;-53
2021/05/02 03:49:12;;;;;;;34.40;28.13;;;7.80;99.90;;;;;;5047029;28;20273;-52
2021/05/02 03:51:39;;;;;;;30.30;26.60;;;7.60;99.90;;;;;;5043862;28;20186;-53
2021/05/02 03:54:06;;;;;;;34.63;28.27;;;7.90;99.90;;;;;;5043685;28;20244;-52
2021/05/02 03:56:45;;;;;;;32.05;26.58;;;7.70;99.90;;;;;;5048395;28;20179;-53
2021/05/02 03:59:13;;;;;;;35.63;27.95;;;7.70;99.90;;;;;;5050347;28;20189;-53
2021/05/02 04:01:42;;;;;;;35.22;27.33;;;7.70;99.90;;;;;;5050304;28;20219;-53
2021/05/02 04:04:11;;;;;;;34.80;27.58;;;7.80;99.90;;;;;;5050420;28;20271;-53
2021/05/02 04:06:36;;;;;;;34.20;28.27;;;7.90;99.90;;;;;;5046425;28;20177;-53
2021/05/02 04:09:07;;;;;;;30.93;27.43;;;7.70;99.90;;;;;;5049200;28;20190;-53
2021/05/02 04:11:33;;;;;;;37.92;29.42;;;7.80;99.90;;;;;;5044159;28;20255;-53
2021/05/02 04:14:06;;;;;;;34.93;28.57;;;7.80;99.90;;;;;;5047659;28;20206;-53
2021/05/02 04:16:32;;;;;;;31.83;27.88;;;8.00;99.90;;;;;;5051514;28;20200;-53
2021/05/02 04:18:58;;;;;;;35.10;29.13;;;8.10;99.90;;;;;;5049695;28;20182;-53
2021/05/02 04:21:24;;;;;;;35.47;28.67;;;7.90;99.90;;;;;;5047317;28;20302;-53
2021/05/02 04:23:50;;;;;;;32.58;26.08;;;7.40;99.90;;;;;;5050630;28;20201;-53
2021/05/02 04:26:16;;;;;;;33.73;27.23;;;7.80;99.90;;;;;;5047313;28;20198;-53
2021/05/02 04:28:42;;;;;;;34.00;27.98;;;7.80;99.90;;;;;;5049653;28;20435;-52
2021/05/02 04:31:08;;;;;;;39.07;28.10;;;7.60;99.90;;;;;;5049733;28;20322;-53
2021/05/02 04:33:33;;;;;;;36.07;29.53;;;7.90;99.90;;;;;;5049448;28;20262;-53
2021/05/02 04:36:03;;;;;;;35.93;29.33;;;7.60;99.90;;;;;;5049336;28;20209;-52
2021/05/02 04:38:28;;;;;;;38.33;31.25;;;7.80;99.90;;;;;;5049102;28;20209;-53
2021/05/02 04:40:54;;;;;;;37.13;30.87;;;7.70;99.90;;;;;;5048967;28;20240;-53
2021/05/02 04:43:20;;;;;;;34.60;28.03;;;7.80;99.90;;;;;;5049642;28;20238;-53
2021/05/02 04:45:45;;;;;;;42.37;28.70;;;7.90;99.90;;;;;;5046537;28;20194;-52
2021/05/02 04:48:11;;;;;;;35.83;27.30;;;8.00;99.90;;;;;;5046574;28;20185;-54
2021/05/02 04:50:37;;;;;;;34.70;29.07;;;7.80;99.90;;;;;;5044165;28;20568;-52
2021/05/02 04:53:03;;;;;;;33.07;27.37;;;8.10;99.90;;;;;;5049073;28;20463;-52
2021/05/02 04:55:29;;;;;;;34.63;28.73;;;8.00;99.90;;;;;;5046165;28;20175;-52
2021/05/02 04:57:55;;;;;;;31.80;28.40;;;8.00;99.90;;;;;;5045809;28;20441;-53
2021/05/02 05:00:21;;;;;;;34.35;28.33;;;7.70;99.90;;;;;;5046036;28;20529;-54
2021/05/02 05:02:47;;;;;;;34.30;28.25;;;7.90;99.90;;;;;;5046358;28;20296;-54
2021/05/02 05:05:13;;;;;;;33.03;29.23;;;8.00;99.90;;;;;;5045696;28;20183;-54
2021/05/02 05:07:39;;;;;;;36.65;29.00;;;7.80;99.90;;;;;;5046759;28;20182;-53
2021/05/02 05:10:05;;;;;;;40.23;30.60;;;7.90;99.90;;;;;;5049680;28;20207;-52
2021/05/02 05:12:31;;;;;;;36.88;28.52;;;7.90;99.90;;;;;;5042592;28;20201;-53
2021/05/02 05:14:56;;;;;;;33.67;29.97;;;8.00;99.90;;;;;;5047217;28;20178;-52
2021/05/02 05:17:22;;;;;;;33.73;28.03;;;8.00;99.90;;;;;;5046056;28;20188;-52
2021/05/02 05:19:47;;;;;;;34.63;27.47;;;8.20;99.90;;;;;;5048816;28;20227;-53
2021/05/02 05:22:13;;;;;;;33.13;29.03;;;8.10;99.90;;;;;;5046952;28;20213;-53
2021/05/02 05:24:39;;;;;;;33.83;28.50;;;8.00;99.90;;;;;;5040227;28;20643;-52
2021/05/02 05:27:05;;;;;;;31.63;26.57;;;8.50;99.90;;;;;;5045046;28;20184;-53
2021/05/02 05:29:32;;;;;;;30.75;26.17;;;8.20;99.90;;;;;;5047893;28;20184;-52
2021/05/02 05:31:58;;;;;;;27.60;24.60;;;8.50;99.90;;;;;;5045764;28;20233;-49
2021/05/02 05:34:23;;;;;;;30.52;24.85;;;8.80;99.90;;;;;;5040324;28;20217;-52
2021/05/02 05:36:49;;;;;;;29.10;25.90;;;8.50;99.90;;;;;;5045648;28;20267;-51
2021/05/02 05:39:15;;;;;;;26.00;22.73;;;8.50;99.90;;;;;;5044267;28;20186;-51
2021/05/02 05:41:40;;;;;;;25.63;22.17;;;8.50;99.90;;;;;;5042668;28;20205;-51
2021/05/02 05:44:06;;;;;;;27.50;24.07;;;8.20;99.90;;;;;;5041749;28;20208;-54
2021/05/02 05:46:32;;;;;;;29.20;24.50;;;8.40;99.90;;;;;;5046859;28;20182;-53
2021/05/02 05:48:57;;;;;;;24.87;22.20;;;8.60;99.90;;;;;;5042807;28;20444;-50
2021/05/02 05:51:23;;;;;;;26.10;23.33;;;8.50;99.90;;;;;;5046185;28;20746;-49
2021/05/02 05:53:48;;;;;;;28.93;23.10;;;8.60;99.90;;;;;;5043423;28;20271;-51
2021/05/02 05:56:14;;;;;;;24.20;21.60;;;8.80;99.90;;;;;;5045340;28;20648;-51
2021/05/02 05:58:40;;;;;;;25.30;22.30;;;9.10;99.90;;;;;;5034922;28;20186;-51
2021/05/02 06:01:05;;;;;;;24.70;22.10;;;8.90;99.90;;;;;;5042896;28;20599;-51
2021/05/02 06:03:31;;;;;;;28.63;22.37;;;9.20;99.90;;;;;;5036923;28;20208;-51
2021/05/02 06:05:58;;;;;;;24.87;21.10;;;9.00;99.90;;;;;;5043923;28;20186;-52
2021/05/02 06:08:23;;;;;;;24.27;21.77;;;9.00;99.90;;;;;;5040604;28;20215;-51
2021/05/02 06:10:49;;;;;;;23.27;20.67;;;9.40;99.90;;;;;;5026539;28;20261;-51
2021/05/02 06:13:18;;;;;;;23.13;20.63;;;9.40;99.90;;;;;;5041234;28;20619;-50
2021/05/02 06:15:44;;;;;;;23.50;21.17;;;9.80;99.90;;;;;;5036494;28;20194;-51
2021/05/02 06:18:10;;;;;;;22.25;19.90;;;9.50;99.90;;;;;;5041545;28;20214;-51
2021/05/02 06:20:36;;;;;;;20.60;18.50;;;9.90;99.90;;;;;;5046929;28;20213;-50
2021/05/02 06:23:01;;;;;;;21.27;19.10;;;9.60;99.90;;;;;;5043626;28;20817;-52
2021/05/02 06:25:27;;;;;;;20.13;18.03;;;10.40;99.90;;;;;;5042648;28;20661;-52
2021/05/02 06:27:52;;;;;;;21.00;18.90;;;10.00;99.90;;;;;;5046734;28;20190;-52
2021/05/02 06:30:19;;;;;;;22.73;20.33;;;10.20;99.90;;;;;;5043550;28;20186;-52
2021/05/02 06:32:44;;;;;;;21.10;18.80;;;10.00;99.90;;;;;;5042221;28;20230;-52
2021/05/02 06:35:10;;;;;;;20.70;18.70;;;10.30;99.90;;;;;;5042102;28;20263;-52
2021/05/02 06:37:36;;;;;;;19.85;17.75;;;10.20;99.90;;;;;;5046006;28;20193;-51
2021/05/02 06:40:03;;;;;;;21.03;18.83;;;10.30;99.90;;;;;;5042377;28;20193;-51
2021/05/02 06:42:28;;;;;;;21.17;18.95;;;10.20;99.90;;;;;;5046106;28;20701;-51
2021/05/02 06:44:54;;;;;;;19.03;17.13;;;10.70;99.90;;;;;;5044052;28;20205;-52
2021/05/02 06:47:20;;;;;;;19.60;17.60;;;10.70;99.90;;;;;;5046875;28;20207;-51
2021/05/02 06:49:46;;;;;;;20.70;18.67;;;10.70;99.90;;;;;;5039432;28;20558;-51
2021/05/02 06:52:12;;;;;;;20.20;17.03;;;10.90;99.90;;;;;;5041492;28;20200;-52
2021/05/02 06:54:37;;;;;;;18.77;16.77;;;11.40;99.90;;;;;;5040578;28;20403;-52
2021/05/02 06:57:04;;;;;;;18.50;16.70;;;11.90;99.90;;;;;;5044603;28;20565;-52
2021/05/02 06:59:29;;;;;;;17.55;15.85;;;11.90;99.90;;;;;;5046404;28;20691;-52
2021/05/02 07:01:55;;;;;;;19.13;17.10;;;12.00;99.90;;;;;;5046601;28;20217;-52
2021/05/02 07:04:20;;;;;;;16.80;15.30;;;12.70;99.90;;;;;;5042997;28;20219;-52
2021/05/02 07:06:46;;;;;;;15.33;13.90;;;13.30;99.90;;;;;;5044902;28;20467;-52
2021/05/02 07:09:12;;;;;;;16.43;14.83;;;13.50;97.80;;;;;;5044926;28;20182;-52
2021/05/02 07:11:37;;;;;;;15.47;13.97;;;13.60;97.50;;;;;;5044147;28;20200;-51
2021/05/02 07:14:03;;;;;;;15.97;14.53;;;13.10;98.00;;;;;;5040368;28;20208;-51
2021/05/02 07:16:30;;;;;;;18.38;16.65;;;12.60;99.00;;;;;;5039120;28;20484;-50
2021/05/02 07:18:55;;;;;;;17.63;15.90;;;12.30;99.80;;;;;;5050292;28;20604;-51
2021/05/02 07:21:21;;;;;;;16.47;14.77;;;12.20;99.90;;;;;;5032854;28;20322;-51
2021/05/02 07:23:52;;;;;;;16.13;14.63;;;12.40;99.70;;;;;;5039734;28;20226;-52
2021/05/02 07:26:22;;;;;;;18.15;16.35;;;12.60;99.50;;;;;;5033067;28;20194;-51
2021/05/02 07:28:49;;;;;;;15.93;14.35;;;12.50;99.30;;;;;;5032189;28;20201;-51
2021/05/02 07:31:15;;;;;;;16.77;15.15;;;12.40;99.90;;;;;;5036896;28;20202;-51
2021/05/02 07:33:41;;;;;;;16.35;14.75;;;12.50;99.60;;;;;;5041434;28;20301;-52
2021/05/02 07:36:08;;;;;;;15.95;14.35;;;12.80;99.90;;;;;;5050890;28;20562;-52
2021/05/02 07:38:35;;;;;;;15.10;13.70;;;13.00;97.90;;;;;;5044616;28;20184;-51
2021/05/02 07:41:01;;;;;;;16.27;14.70;;;12.80;98.00;;;;;;5049796;28;20674;-52
2021/05/02 07:43:27;;;;;;;15.50;14.10;;;12.70;99.20;;;;;;5049145;28;20293;-52
2021/05/02 07:45:53;;;;;;;15.93;14.33;;;13.10;97.90;;;;;;5045992;28;20225;-52
2021/05/02 07:48:18;;;;;;;14.50;13.10;;;13.10;97.30;;;;;;5043019;28;20203;-51
2021/05/02 07:50:44;;;;;;;16.30;14.63;;;13.40;96.50;;;;;;5048696;28;20187;-51
2021/05/02 07:53:10;;;;;;;16.07;14.10;;;13.20;96.80;;;;;;5049181;28;20358;-51
2021/05/02 07:55:35;;;;;;;15.97;14.40;;;13.40;96.40;;;;;;5048530;28;20196;-52
2021/05/02 07:58:01;;;;;;;15.70;14.30;;;12.80;97.40;;;;;;5047385;28;20189;-52
2021/05/02 08:00:27;;;;;;;16.47;14.93;;;12.80;98.20;;;;;;5047837;28;20702;-51
2021/05/02 08:02:53;;;;;;;15.17;13.77;;;12.70;98.30;;;;;;5047623;28;20490;-52
2021/05/02 08:05:19;;;;;;;13.60;12.40;;;12.80;97.30;;;;;;5048034;28;20178;-52
2021/05/02 08:07:45;;;;;;;13.88;12.68;;;14.20;96.70;;;;;;5051712;28;20185;-52
2021/05/02 08:10:11;;;;;;;14.35;12.85;;;15.30;93.20;;;;;;5049796;28;20216;-51
2021/05/02 08:12:37;;;;;;;13.52;12.35;;;15.50;92.30;;;;;;5050699;28;20259;-52
2021/05/02 08:15:04;;;;;;;13.40;12.20;;;15.60;87.30;;;;;;5049125;28;20577;-52
2021/05/02 08:17:29;;;;;;;12.48;11.32;;;15.80;85.80;;;;;;5041290;28;20190;-52
2021/05/02 08:19:55;;;;;;;13.10;11.90;;;16.20;79.90;;;;;;5049214;28;20239;-52
2021/05/02 08:22:21;;;;;;;13.50;12.20;;;17.20;77.10;;;;;;5049954;28;20262;-52
2021/05/02 08:24:46;;;;;;;13.03;11.93;;;19.10;71.40;;;;;;5045104;28;20193;-52
2021/05/02 08:27:12;;;;;;;12.67;11.70;;;19.40;66.80;;;;;;5039811;28;20177;-52
2021/05/02 08:29:39;;;;;;;12.77;11.77;;;19.80;64.50;;;;;;5051259;28;20225;-53
2021/05/02 08:32:04;;;;;;;13.05;11.95;;;19.70;63.00;;;;;;5049539;28;20210;-53
2021/05/02 08:34:30;;;;;;;14.00;12.80;;;18.90;63.20;;;;;;5046139;28;20182;-52
2021/05/02 08:36:56;;;;;;;16.43;12.17;;;19.00;63.00;;;;;;5064448;28;20807;-53
2021/05/02 08:39:22;;;;;;;14.37;13.07;;;19.20;60.00;;;;;;5044895;28;20224;-52
2021/05/02 08:41:48;;;;;;;13.75;12.57;;;18.20;63.00;;;;;;5046613;28;20217;-52
2021/05/02 08:44:17;;;;;;;14.40;13.00;;;17.20;66.50;;;;;;5044145;28;20651;-52
2021/05/02 08:46:43;;;;;;;13.63;12.20;;;16.70;66.30;;;;;;5047765;28;20490;-52
2021/05/02 08:49:09;;;;;;;14.30;13.00;;;16.00;70.30;;;;;;5041752;28;20185;-52
2021/05/02 08:51:34;;;;;;;13.53;12.40;;;15.70;70.60;;;;;;5045262;28;20185;-52
2021/05/02 08:54:00;;;;;;;15.27;13.97;;;15.40;71.30;;;;;;5048748;28;20308;-52
2021/05/02 08:56:25;;;;;;;13.93;12.63;;;15.20;73.00;;;;;;5047258;28;20189;-52
2021/05/02 08:58:51;;;;;;;15.13;13.73;;;15.00;75.10;;;;;;5045016;28;20677;-52
2021/05/02 09:01:27;;;;;;;12.93;11.73;;;15.20;76.20;;;;;;5045271;28;20464;-52
2021/05/02 09:03:52;;;;;;;12.93;11.60;;;16.30;72.70;;;;;;5042534;28;20197;-52
2021/05/02 09:06:27;;;;;;;13.57;12.37;;;17.10;67.50;;;;;;5041233;28;20292;-51
2021/05/02 09:09:02;;;;;;;13.68;12.45;;;18.00;64.70;;;;;;5044890;28;20644;-52
2021/05/02 09:11:41;;;;;;;12.73;11.60;;;19.00;61.90;;;;;;5042495;28;20239;-54
2021/05/02 09:14:17;;;;;;;13.75;12.55;;;19.40;60.70;;;;;;5042100;28;20212;-53
2021/05/02 09:16:51;;;;;;;14.80;13.30;;;19.40;60.00;;;;;;5032852;28;20188;-55
2021/05/02 09:19:22;;;;;;;14.50;13.20;;;18.40;62.80;;;;;;5034299;28;20987;-51
2021/05/02 09:21:48;;;;;;;14.85;13.55;;;17.80;62.10;;;;;;5044363;28;20221;-50
2021/05/02 09:24:32;;;;;;;13.98;12.73;;;17.20;65.20;;;;;;5043583;28;20189;-51
2021/05/02 09:27:08;;;;;;;15.73;14.27;;;16.40;67.10;;;;;;5044188;28;20272;-50
2021/05/02 09:29:35;;;;;;;15.77;14.13;;;15.70;70.20;;;;;;5044057;28;20220;-50
2021/05/02 09:32:03;;;;;;;14.40;13.10;;;15.20;69.50;;;;;;5042499;28;20672;-51
2021/05/02 09:34:30;;;;;;;14.18;12.98;;;15.30;68.90;;;;;;5042109;28;20197;-50
2021/05/02 09:37:02;;;;;;;14.60;13.20;;;15.20;70.90;;;;;;5059892;28;20676;-50
2021/05/02 09:39:40;;;;;;;14.88;13.65;;;15.20;71.40;;;;;;5043553;28;20232;-50
2021/05/02 09:42:38;;;;;;;16.58;14.98;;;14.90;70.80;;;;;;5042895;28;20213;-51
2021/05/02 09:45:10;;;;;;;15.30;13.77;;;15.00;69.60;;;;;;5043236;28;20181;-50
2021/05/02 09:47:41;;;;;;;16.00;14.55;;;14.50;71.50;;;;;;5039019;28;20197;-50
2021/05/02 09:50:11;;;;;;;15.82;14.20;;;14.40;70.80;;;;;;5043005;28;20606;-50
2021/05/02 09:52:55;;;;;;;15.02;13.70;;;14.10;72.50;;;;;;5042361;28;20208;-50
2021/05/02 09:55:29;;;;;;;16.23;14.70;;;14.20;73.40;;;;;;5042039;28;20196;-50
2021/05/02 09:58:10;;;;;;;16.08;14.68;;;14.10;74.20;;;;;;5042137;28;20185;-53
2021/05/02 10:00:44;;;;;;;15.75;14.25;;;13.80;75.80;;;;;;5042832;28;20226;-52
2021/05/02 10:03:14;;;;;;;15.55;14.05;;;13.60;81.00;;;;;;5043041;28;20259;-48
2021/05/02 10:05:52;;;;;;;15.48;13.98;;;13.10;82.50;;;;;;5059314;28;20190;-50
2021/05/02 10:08:20;;;;;;;17.40;15.70;;;13.30;84.70;;;;;;5041956;28;20191;-53
2021/05/02 10:10:46;;;;;;;17.20;15.70;;;13.20;88.10;;;;;;5040076;28;20451;-51
2021/05/02 10:13:12;;;;;;;16.20;14.70;;;13.70;83.50;;;;;;5043270;28;20225;-50
2021/05/02 10:15:38;;;;;;;16.30;14.80;;;13.90;83.00;;;;;;5042084;28;20539;-51
2021/05/02 10:18:04;;;;;;;16.33;14.77;;;13.90;80.90;;;;;;5042467;28;20307;-51
2021/05/02 10:20:30;;;;;;;17.65;16.05;;;13.90;80.60;;;;;;5041511;28;20675;-50
2021/05/02 10:22:55;;;;;;;17.13;15.43;;;13.70;78.50;;;;;;5048234;28;20209;-51
2021/05/02 10:25:21;;;;;;;16.20;14.60;;;14.30;82.80;;;;;;5043507;28;20634;-50
2021/05/02 10:27:50;;;;;;;17.33;15.48;;;14.30;81.80;;;;;;5044858;28;20259;-50
2021/05/02 10:30:31;;;;;;;16.42;14.93;;;14.20;79.60;;;;;;5046738;28;20200;-51
2021/05/02 10:33:05;;;;;;;16.08;14.48;;;14.50;78.60;;;;;;5045382;28;20209;-51
2021/05/02 10:35:53;;;;;;;15.57;14.07;;;14.20;73.20;;;;;;5047121;28;20181;-51
2021/05/02 10:38:21;;;;;;;15.68;14.25;;;14.20;74.70;;;;;;5046537;28;20208;-51
2021/05/02 10:40:47;;;;;;;16.50;14.90;;;14.10;75.00;;;;;;5048391;28;20173;-50
2021/05/02 10:43:30;;;;;;;16.80;15.20;;;13.60;76.00;;;;;;5044710;28;20312;-51
2021/05/02 10:45:56;;;;;;;17.00;15.20;;;13.40;78.30;;;;;;5035295;28;20181;-51
2021/05/02 10:48:22;;;;;;;16.38;14.13;;;14.10;77.50;;;;;;5047119;28;20658;-51
2021/05/02 10:50:54;;;;;;;15.73;14.20;;;14.50;73.10;;;;;;5046137;28;20473;-51
2021/05/02 10:53:22;;;;;;;16.70;15.00;;;15.00;71.10;;;;;;5035780;28;20213;-51
2021/05/02 10:56:03;;;;;;;16.13;14.63;;;14.80;69.50;;;;;;5047230;28;20189;-51
2021/05/02 10:58:33;;;;;;;15.93;14.25;;;15.30;69.10;;;;;;5045639;28;20185;-51
2021/05/02 11:01:04;;;;;;;15.65;14.15;;;16.20;66.40;;;;;;5047838;28;20210;-51
2021/05/02 11:03:36;;;;;;;15.02;13.50;;;17.40;62.70;;;;;;5034236;28;20212;-52
2021/05/02 11:06:03;;;;;;;14.40;13.10;;;17.80;59.60;;;;;;5047088;28;20193;-51
2021/05/02 11:09:01;;;;;;;14.50;13.20;;;17.20;59.10;;;;;;5063884;28;20190;-51
2021/05/02 11:11:32;;;;;;;15.10;13.80;;;17.40;59.20;;;;;;5043089;28;20189;-51
2021/05/02 11:16:38;;;;;;;16.15;14.43;;;17.60;59.00;;;;;;5049203;28;20292;-50
2021/05/02 11:19:05;;;;;;;15.55;14.25;;;16.90;60.70;;;;;;5047413;28;20643;-51
2021/05/02 11:21:47;;;;;;;15.77;14.38;;;16.10;61.50;;;;;;5046728;28;20654;-50
2021/05/02 11:24:16;;;;;;;15.32;13.90;;;16.10;64.00;;;;;;5045551;28;20185;-50
2021/05/02 11:27:10;;;;;;;17.20;15.52;;;15.40;63.80;;;;;;5044650;28;20240;-51
2021/05/02 11:32:53;;;;;;;15.52;14.13;;;14.80;68.00;;;;;;5025647;28;20201;-50
2021/05/02 11:35:39;;;;;;;14.60;13.20;;;14.40;73.20;;;;;;5047269;28;20177;-50
2021/05/02 11:38:05;;;;;;;15.40;13.90;;;13.70;82.50;;;;;;5035345;28;20567;-50
2021/05/02 11:40:31;;;;;;;13.13;11.93;;;13.50;87.40;;;;;;5046162;28;20180;-50
2021/05/02 11:42:57;;;;;;;14.03;12.80;;;13.20;86.90;;;;;;5046626;28;20550;-50
2021/05/02 11:45:41;;;;;;;16.80;15.20;;;12.70;87.30;;;;;;5043156;28;20446;-51
2021/05/02 11:48:08;;;;;;;13.80;12.43;;;12.80;90.20;;;;;;5046655;28;20437;-51
2021/05/02 11:50:41;;;;;;;15.10;13.80;;;13.00;90.90;;;;;;5046032;28;20211;-50
2021/05/02 11:53:07;;;;;;;16.02;14.55;;;13.40;90.60;;;;;;5046098;28;20210;-51
2021/05/02 11:55:37;;;;;;;15.47;13.97;;;14.00;89.40;;;;;;5045535;28;20348;-51
2021/05/02 11:58:14;;;;;;;16.40;15.00;;;14.30;87.60;;;;;;5038812;28;20464;-51
2021/05/02 12:00:49;;;;;;;16.50;15.10;;;14.20;86.40;;;;;;5044750;28;20192;-51
2021/05/02 12:03:17;;;;;;;16.65;15.20;;;13.60;88.70;;;;;;5040711;28;20209;-51
2021/05/02 12:05:53;;;;;;;15.98;14.38;;;14.30;91.10;;;;;;5041797;28;20191;-51
2021/05/02 12:08:22;;;;;;;14.82;13.63;;;14.10;90.10;;;;;;5042012;28;20654;-52
2021/05/02 12:10:58;;;;;;;14.93;13.70;;;14.00;85.40;;;;;;5043131;28;20197;-52
2021/05/02 12:13:45;;;;;;;14.48;13.07;;;14.00;85.20;;;;;;5039323;28;20297;-52
2021/05/02 12:16:15;;;;;;;12.95;11.85;;;14.30;86.90;;;;;;5039954;28;20177;-52
2021/05/02 12:18:49;;;;;;;12.02;11.02;;;14.30;80.80;;;;;;5045669;28;20209;-52
2021/05/02 12:21:35;;;;;;;12.50;11.45;;;13.60;81.70;;;;;;5045012;28;20221;-51
2021/05/02 12:24:10;;;;;;;11.30;10.40;;;13.70;84.90;;;;;;5043352;28;20208;-50
2021/05/02 12:26:42;;;;;;;12.07;10.88;;;13.90;84.00;;;;;;5046587;28;20180;-51
2021/05/02 12:29:30;;;;;;;12.07;11.07;;;13.60;84.40;;;;;;5043100;28;20201;-51
2021/05/02 12:32:03;;;;;;;12.15;10.77;;;12.70;86.80;;;;;;5044610;28;20218;-51
2021/05/02 12:34:34;;;;;;;11.02;10.13;;;12.80;91.30;;;;;;5041475;28;20679;-52
2021/05/02 12:37:12;;;;;;;10.98;9.98;;;12.40;94.00;;;;;;5042687;28;20196;-49
2021/05/02 12:39:39;;;;;;;8.70;7.90;;;11.90;96.10;;;;;;5047498;28;20186;-50
2021/05/02 12:42:06;;;;;;;8.18;7.47;;;11.40;97.10;;;;;;5041401;28;20214;-50
2021/05/02 12:44:33;;;;;;;7.15;6.55;;;11.30;97.80;;;;;;5043453;28;20642;-49
2021/05/02 12:47:00;;;;;;;9.40;8.60;;;11.20;98.40;;;;;;5049183;28;20186;-49